Vinson, Oklahoma
Current Conditions -  °F | °C
As of 2:55 PM on Thursday 20 Nov 2014 (Local Time) from KAXS Reporting Station
Clear Clear  
Wind Chill: 61°   Ceiling: Unl
Heat Index: 61°   Visibility: 10mi
Dew Point: 37°   Wind: 7mph
Humidity: 41%   Direction: 160°SSE
Pressure: 29.97"   Gusts: NA
Location:  34.9°N, 99.86°W
Report Text: KAXS 202055Z AUTO 16006KT 10SM CLR 16/03 A2997 RMK AO2 T01600026
Loading
Personal Weather Stations






























Interactive Weather Map New forecast layout! Learn more

10-Day Weather Forecast

Advertisements
Track Severe Weather on mobile